| time (UTC) | temp F | wind direction | speed knots | gust knots | rain 1hr in | rain 24hr in | rain mn in | humidity % | barometer mb |
| 20260505101534 | 51 | 159 | 0.0 | 0.0 | 0.00 | 0.03 | 0.02 | 63 | 1034.3 |
| 20260505100034 | 51 | 159 | 0.0 | 0.0 | 0.00 | 0.03 | 0.02 | 62 | 1034.3 |
| 20260505094531 | 52 | 159 | 0.0 | 0.0 | 0.00 | 0.03 | 0.02 | 61 | 1034.2 |
| 20260505093030 | 52 | 159 | 0.0 | 0.0 | 0.00 | 0.03 | 0.02 | 60 | 1034.1 |
| 20260505091534 | 52 | 159 | 0.0 | 0.0 | 0.00 | 0.03 | 0.02 | 59 | 1034.1 |
| 20260505090034 | 53 | 159 | 0.0 | 0.0 | 0.00 | 0.03 | 0.02 | 58 | 1034.0 |
| 20260505084526 | 53 | 159 | 0.0 | 0.0 | 0.00 | 0.03 | 0.02 | 58 | 1033.9 |
| 20260505083026 | 53 | 159 | 0.0 | 0.0 | 0.00 | 0.03 | 0.02 | 57 | 1033.7 |
| 20260505081524 | 54 | 159 | 0.0 | 0.0 | 0.00 | 0.03 | 0.02 | 57 | 1033.5 |
| 20260505080031 | 54 | 159 | 0.0 | 0.0 | 0.00 | 0.05 | 0.02 | 56 | 1033.4 |
| 20260505074518 | 55 | 157 | 0.0 | 0.0 | 0.00 | 0.05 | 0.02 | 56 | 1033.1 |
| 20260505073017 | 55 | 157 | 0.0 | 0.0 | 0.00 | 0.05 | 0.02 | 55 | 1032.8 |
| 20260505071515 | 56 | 157 | 0.0 | 0.0 | 0.00 | 0.05 | 0.02 | 55 | 1032.7 |
| 20260505070015 | 56 | 157 | 0.0 | 0.0 | 0.00 | 0.05 | 0.02 | 54 | 1032.6 |
| 20260505064513 | 56 | 157 | 0.0 | 0.0 | 0.00 | 0.05 | 0.02 | 53 | 1032.4 |
| 20260505063011 | 56 | 157 | 0.0 | 0.0 | 0.00 | 0.05 | 0.02 | 53 | 1032.2 |
| 20260505061516 | 56 | 157 | 0.9 | 4.3 | 0.00 | 0.05 | 0.02 | 52 | 1032.2 |
| 20260505060012 | 57 | 167 | 0.0 | 1.7 | 0.00 | 0.05 | 0.02 | 51 | 1032.1 |
| 20260505054507 | 58 | 178 | 1.7 | 3.5 | 0.00 | 0.05 | 0.02 | 50 | 1031.8 |
| 20260505053007 | 58 | 205 | 0.0 | 1.7 | 0.00 | 0.05 | 0.02 | 49 | 1031.8 |
| 20260505051507 | 58 | 212 | 0.9 | 1.7 | 0.00 | 0.05 | 0.02 | 49 | 1031.6 |
| 20260505041615 | 61 | 228 | 0.0 | 3.5 | 0.00 | 0.05 | 0.02 | 48 | 1031.2 |
| 20260505040059 | 60 | 228 | 0.9 | 6.1 | 0.00 | 0.05 | 0.02 | 50 | 1031.2 |
| 20260505034601 | 60 | 254 | 0.9 | 3.5 | 0.00 | 0.05 | 0.02 | 53 | 1031.1 |
| 20260505033056 | 58 | 175 | 1.7 | 5.2 | 0.00 | 0.05 | 0.02 | 53 | 1031.2 |
| 20260505031601 | 57 | 152 | 0.0 | 2.6 | 0.00 | 0.05 | 0.02 | 56 | 1031.0 |
| 20260505030052 | 57 | 229 | 0.0 | 0.9 | 0.00 | 0.05 | 0.02 | 55 | 1031.1 |
| 20260505024551 | 57 | 277 | 2.6 | 6.1 | 0.00 | 0.05 | 0.02 | 55 | 1031.1 |
| 20260505023054 | 56 | 216 | 0.0 | 2.6 | 0.00 | 0.05 | 0.02 | 56 | 1031.4 |
| 20260505021550 | 57 | 209 | 0.0 | 4.3 | 0.00 | 0.05 | 0.02 | 55 | 1031.4 |
| 20260505020049 | 57 | 226 | 0.9 | 4.3 | 0.00 | 0.05 | 0.02 | 55 | 1031.6 |
| 20260505014549 | 57 | 190 | 0.0 | 3.5 | 0.00 | 0.05 | 0.02 | 55 | 1031.8 |
| 20260505013048 | 57 | 153 | 1.7 | 4.3 | 0.00 | 0.05 | 0.02 | 55 | 1031.7 |
| 20260505011549 | 58 | 232 | 1.7 | 6.1 | 0.00 | 0.05 | 0.02 | 56 | 1031.8 |
| 20260505004543 | 56 | 212 | 0.0 | 4.3 | 0.00 | 0.05 | 0.02 | 60 | 1031.6 |
| 20260505003039 | 55 | 292 | 1.7 | 6.1 | 0.00 | 0.05 | 0.02 | 62 | 1031.4 |
| 20260505001546 | 53 | 248 | 0.0 | 7.0 | 0.00 | 0.05 | 0.02 | 66 | 1031.3 |
| 20260505000038 | 51 | 188 | 0.9 | 3.5 | 0.00 | 0.05 | 0.02 | 67 | 1031.3 |
| 20260504234527 | 51 | 212 | 0.9 | 5.2 | 0.00 | 0.05 | 0.02 | 68 | 1031.1 |
| 20260504233025 | 51 | 180 | 0.9 | 3.5 | 0.00 | 0.05 | 0.02 | 68 | 1031.2 |
| 20260504231530 | 51 | 184 | 0.9 | 2.6 | 0.01 | 0.05 | 0.02 | 68 | 1031.2 |
| 20260504230020 | 51 | 205 | 0.0 | 0.0 | 0.01 | 0.05 | 0.02 | 68 | 1030.9 |
| 20260504224523 | 50 | 192 | 0.0 | 0.0 | 0.02 | 0.05 | 0.02 | 68 | 1030.7 |
| 20260504223018 | 50 | 207 | 0.0 | 0.0 | 0.02 | 0.05 | 0.02 | 68 | 1030.5 |
| 20260504221514 | 50 | 207 | 0.0 | 0.0 | 0.02 | 0.04 | 0.02 | 67 | 1030.4 |
| 20260504220017 | 50 | 207 | 0.0 | 0.0 | 0.02 | 0.04 | 0.02 | 67 | 1030.1 |
| 20260504214510 | 49 | 207 | 0.0 | 0.0 | 0.01 | 0.03 | 0.01 | 67 | 1029.9 |
| 20260504213010 | 49 | 207 | 0.0 | 0.0 | 0.01 | 0.03 | 0.01 | 67 | 1029.5 |
| 20260504211505 | 49 | 207 | 0.0 | 0.0 | 0.00 | 0.02 | 0.00 | 67 | 1029.3 |
| 20260504210003 | 49 | 207 | 0.0 | 0.0 | 0.00 | 0.02 | 0.00 | 66 | 1029.2 |
| 20260504204501 | 49 | 207 | 0.0 | 0.0 | 0.00 | 0.02 | 0.00 | 66 | 1029.0 |
| 20260504203103 | 49 | 207 | 0.0 | 0.0 | 0.00 | 0.02 | 0.00 | 66 | 1028.8 |
| 20260504201601 | 49 | 207 | 0.0 | 0.0 | 0.00 | 0.02 | 0.00 | 66 | 1028.4 |
| 20260504200100 | 49 | 207 | 0.0 | 0.0 | 0.00 | 0.02 | 0.00 | 66 | 1028.4 |
| 20260504194608 | 50 | 207 | 0.0 | 0.0 | 0.00 | 0.02 | 0.00 | 65 | 1028.2 |
| 20260504193053 | 50 | 207 | 0.0 | 0.0 | 0.00 | 0.02 | 0.00 | 65 | 1028.1 |
| 20260504191552 | 50 | 252 | 0.0 | 0.0 | 0.00 | 0.02 | 0.00 | 65 | 1028.0 |
| 20260504190115 | 50 | 251 | 0.0 | 0.0 | 0.00 | 0.02 | 0.00 | 65 | 1028.0 |
| 20260504184556 | 50 | 251 | 0.0 | 0.0 | 0.00 | 0.02 | 0.00 | 65 | 1027.7 |
| 20260504183049 | 50 | 251 | 0.0 | 0.0 | 0.00 | 0.02 | 0.00 | 65 | 1027.6 |
| 20260504181553 | 50 | 245 | 0.0 | 1.7 | 0.00 | 0.02 | 0.00 | 65 | 1027.4 |
| 20260504180118 | 50 | 302 | 0.0 | 2.6 | 0.00 | 0.02 | 0.00 | 65 | 1027.3 |
| 20260504174549 | 50 | 303 | 0.0 | 7.8 | 0.00 | 0.02 | 0.00 | 65 | 1027.1 |
| 20260504173057 | 50 | 250 | 0.0 | 2.6 | 0.00 | 0.02 | 0.00 | 66 | 1027.1 |
| 20260504171543 | 50 | 250 | 0.0 | 0.9 | 0.00 | 0.02 | 0.00 | 66 | 1027.0 |